Time;durP1;ratioP1;P1;durP2;ratioP2;P2;SDS_P1;SDS_P2;PMS_P1;PMS_P2;Temp;Humidity;BMP_temperature;BMP_pressure;BME280_temperature;BME280_humidity;BME280_pressure;Samples;Min_cycle;Max_cycle;Signal;HPM_P1;HPM_P2
2022/03/30 00:00:56;;;;;;;2.50;2.30;;;4.70;99.90;;;;;;5035863;28;20445;-63
2022/03/30 00:03:22;;;;;;;2.90;2.43;;;4.70;99.90;;;;;;5035942;28;20214;-65
2022/03/30 00:05:47;;;;;;;3.30;1.97;;;4.80;99.90;;;;;;5034489;28;20167;-63
2022/03/30 00:08:13;;;;;;;2.43;2.23;;;4.80;99.90;;;;;;5035954;28;20930;-63
2022/03/30 00:10:39;;;;;;;6.03;2.30;;;4.90;99.90;;;;;;5035194;28;20178;-64
2022/03/30 00:13:05;;;;;;;2.70;2.10;;;4.90;99.90;;;;;;5035626;28;20449;-67
2022/03/30 00:15:31;;;;;;;13.03;2.70;;;4.90;99.90;;;;;;5035811;28;20425;-63
2022/03/30 00:17:57;;;;;;;4.70;2.20;;;4.90;99.90;;;;;;5035770;28;20258;-63
2022/03/30 00:20:23;;;;;;;2.50;2.30;;;4.80;99.90;;;;;;5034968;28;20188;-63
2022/03/30 00:22:48;;;;;;;4.70;2.97;;;4.80;99.90;;;;;;5035493;28;20476;-64
2022/03/30 00:25:15;;;;;;;4.63;2.83;;;4.80;99.90;;;;;;5035437;28;20414;-66
2022/03/30 00:27:43;;;;;;;8.43;2.13;;;4.90;99.90;;;;;;5035597;28;20655;-66
2022/03/30 00:30:11;;;;;;;6.97;2.30;;;4.90;99.90;;;;;;5034745;28;20476;-66
2022/03/30 00:32:37;;;;;;;3.87;2.17;;;4.90;99.90;;;;;;5035368;28;20422;-63
2022/03/30 00:35:03;;;;;;;2.20;2.00;;;4.90;99.90;;;;;;5035194;28;20547;-66
2022/03/30 00:37:29;;;;;;;2.90;2.50;;;4.90;99.90;;;;;;5035245;28;20183;-63
2022/03/30 00:39:55;;;;;;;4.10;2.50;;;4.90;99.90;;;;;;5033191;28;20410;-66
2022/03/30 00:42:23;;;;;;;6.40;2.30;;;4.80;99.90;;;;;;5035077;28;20190;-65
2022/03/30 00:44:49;;;;;;;9.53;3.30;;;4.90;99.90;;;;;;5035011;28;20179;-66
2022/03/30 00:47:18;;;;;;;2.80;2.40;;;4.90;99.90;;;;;;5034958;28;20399;-64
2022/03/30 00:49:43;;;;;;;4.17;2.50;;;4.80;99.90;;;;;;5034371;28;20438;-63
2022/03/30 00:52:09;;;;;;;6.80;2.20;;;4.70;99.90;;;;;;5035010;28;20462;-63
2022/03/30 00:54:36;;;;;;;3.53;2.20;;;4.70;99.90;;;;;;5035100;28;20410;-66
2022/03/30 00:57:04;;;;;;;3.47;2.57;;;4.70;99.90;;;;;;5034862;28;20427;-64
2022/03/30 00:59:30;;;;;;;3.27;1.77;;;4.70;99.90;;;;;;5034019;28;20425;-63
2022/03/30 01:01:56;;;;;;;3.30;2.20;;;4.80;99.90;;;;;;5034886;28;20461;-65
2022/03/30 01:04:21;;;;;;;5.53;2.63;;;4.80;99.90;;;;;;5033579;28;20442;-65
2022/03/30 01:06:47;;;;;;;10.07;2.60;;;4.80;99.90;;;;;;5034759;28;20846;-63
2022/03/30 01:09:13;;;;;;;9.40;2.57;;;4.80;99.90;;;;;;5033524;28;20175;-64
2022/03/30 01:11:38;;;;;;;8.00;2.23;;;4.70;99.90;;;;;;5034591;28;20227;-66
2022/03/30 01:14:04;;;;;;;2.60;2.40;;;4.70;99.90;;;;;;5034611;28;20257;-65
2022/03/30 01:16:30;;;;;;;3.53;2.07;;;4.70;99.90;;;;;;5034520;28;20246;-66
2022/03/30 01:19:07;;;;;;;2.67;1.90;;;4.70;99.90;;;;;;5032554;28;20831;-66
2022/03/30 01:21:34;;;;;;;4.67;1.70;;;4.80;99.90;;;;;;5034639;28;20461;-67
2022/03/30 01:24:00;;;;;;;2.90;2.70;;;4.80;99.90;;;;;;5034478;28;20445;-63
2022/03/30 01:26:26;;;;;;;5.53;2.40;;;4.70;99.90;;;;;;5034164;28;20437;-66
2022/03/30 01:28:52;;;;;;;2.57;2.37;;;4.70;99.90;;;;;;5033629;28;20163;-66
2022/03/30 01:34:02;;;;;;;2.07;1.97;;;4.60;99.90;;;;;;5034439;28;20431;-63
2022/03/30 01:36:28;;;;;;;2.70;2.33;;;4.50;99.90;;;;;;5034300;28;20417;-63
2022/03/30 01:38:54;;;;;;;3.63;1.93;;;4.60;99.90;;;;;;5033494;28;20763;-66
2022/03/30 01:41:19;;;;;;;4.07;2.37;;;4.60;99.90;;;;;;5033973;28;20210;-63
2022/03/30 01:43:45;;;;;;;3.97;2.10;;;4.70;99.90;;;;;;5033860;28;20230;-67
2022/03/30 01:46:11;;;;;;;2.03;1.90;;;4.70;99.90;;;;;;5032985;28;20246;-66
2022/03/30 01:48:36;;;;;;;2.63;2.13;;;4.60;99.90;;;;;;5032298;28;20175;-66
2022/03/30 01:51:02;;;;;;;3.80;2.63;;;4.70;99.90;;;;;;5033812;28;20205;-66
2022/03/30 01:53:28;;;;;;;4.43;2.10;;;4.70;99.90;;;;;;5033855;28;20233;-64
2022/03/30 01:55:54;;;;;;;4.53;2.57;;;4.70;99.90;;;;;;5033709;28;20537;-67
2022/03/30 01:58:20;;;;;;;3.67;2.30;;;4.70;99.90;;;;;;5033782;28;20672;-64
2022/03/30 02:00:46;;;;;;;2.30;2.17;;;4.60;99.90;;;;;;5033157;28;20456;-63
2022/03/30 02:03:12;;;;;;;3.40;2.23;;;4.70;99.90;;;;;;5033917;28;20505;-63
2022/03/30 02:05:38;;;;;;;1.90;1.80;;;4.60;99.90;;;;;;5033748;28;20187;-67
2022/03/30 02:08:04;;;;;;;2.20;1.83;;;4.60;99.90;;;;;;5033640;28;20421;-66
2022/03/30 02:10:31;;;;;;;10.57;1.90;;;4.60;99.90;;;;;;5033029;28;20496;-63
2022/03/30 02:13:00;;;;;;;4.17;2.23;;;4.60;99.90;;;;;;5033552;28;20975;-65
2022/03/30 02:15:26;;;;;;;6.13;2.47;;;4.70;99.90;;;;;;5033689;28;20409;-64
2022/03/30 02:17:52;;;;;;;2.00;1.90;;;4.60;99.90;;;;;;5033621;28;20417;-66
2022/03/30 02:20:18;;;;;;;3.43;2.03;;;4.70;99.90;;;;;;5032607;28;20205;-63
2022/03/30 02:22:44;;;;;;;4.23;1.90;;;4.80;99.90;;;;;;5032743;28;20190;-63
2022/03/30 02:25:10;;;;;;;2.70;2.13;;;4.80;99.90;;;;;;5033358;28;20417;-65
2022/03/30 02:27:36;;;;;;;5.40;2.30;;;4.80;99.90;;;;;;5033464;28;20412;-63
2022/03/30 02:30:03;;;;;;;2.77;2.50;;;4.70;99.90;;;;;;5032733;28;20868;-63
2022/03/30 02:32:29;;;;;;;2.87;2.20;;;4.70;99.90;;;;;;5033274;28;20553;-66
2022/03/30 02:34:55;;;;;;;2.33;1.70;;;4.70;99.90;;;;;;5033472;28;20434;-64
2022/03/30 02:37:20;;;;;;;2.00;1.90;;;4.70;99.90;;;;;;5033284;28;20581;-63
2022/03/30 02:39:46;;;;;;;3.80;2.30;;;4.70;99.90;;;;;;5032724;28;20182;-63
2022/03/30 02:42:12;;;;;;;12.80;2.97;;;4.80;99.90;;;;;;5033036;28;20218;-67
2022/03/30 02:44:38;;;;;;;8.67;2.03;;;4.80;99.90;;;;;;5033394;28;20193;-63
2022/03/30 02:47:05;;;;;;;1.83;1.73;;;4.80;99.90;;;;;;5033251;28;20399;-63
2022/03/30 02:49:30;;;;;;;4.23;2.43;;;4.90;99.90;;;;;;5032659;28;20180;-66
2022/03/30 02:51:56;;;;;;;9.30;2.70;;;4.90;99.90;;;;;;5033020;28;20433;-64
2022/03/30 02:54:24;;;;;;;2.60;2.40;;;4.90;99.90;;;;;;5033013;28;20425;-63
2022/03/30 02:56:49;;;;;;;3.03;2.40;;;4.90;99.90;;;;;;5033294;28;20167;-66
2022/03/30 02:59:15;;;;;;;2.73;2.53;;;4.90;99.90;;;;;;5032602;28;20403;-63
2022/03/30 03:01:41;;;;;;;4.17;2.60;;;4.90;99.90;;;;;;5032995;28;20206;-63
2022/03/30 03:04:07;;;;;;;2.60;2.40;;;4.70;99.90;;;;;;5031633;28;20233;-67
2022/03/30 03:06:32;;;;;;;5.17;2.57;;;4.60;99.90;;;;;;5032829;28;20178;-65
2022/03/30 03:08:58;;;;;;;3.03;1.90;;;4.60;99.90;;;;;;5032375;28;20408;-63
2022/03/30 03:11:24;;;;;;;1.97;1.83;;;4.60;99.90;;;;;;5033145;28;20199;-64
2022/03/30 03:13:51;;;;;;;2.43;2.33;;;4.50;99.90;;;;;;5033187;28;20764;-66
2022/03/30 03:16:18;;;;;;;5.43;2.27;;;4.60;99.90;;;;;;5032996;28;20417;-64
2022/03/30 03:18:44;;;;;;;2.57;2.13;;;4.50;99.90;;;;;;5032373;28;20902;-63
2022/03/30 03:21:09;;;;;;;4.10;2.80;;;4.60;99.90;;;;;;5032709;28;20477;-66
2022/03/30 03:23:35;;;;;;;2.97;1.80;;;4.60;99.90;;;;;;5032928;28;20433;-65
2022/03/30 03:26:01;;;;;;;3.00;2.10;;;4.60;99.90;;;;;;5033074;28;20571;-63
2022/03/30 03:28:26;;;;;;;3.20;1.90;;;4.70;99.90;;;;;;5032742;28;20561;-66
2022/03/30 03:30:52;;;;;;;2.27;1.70;;;4.70;99.90;;;;;;5032486;28;20183;-63
2022/03/30 03:33:18;;;;;;;5.43;2.40;;;4.80;99.90;;;;;;5034804;28;20202;-66
2022/03/30 03:35:44;;;;;;;12.63;1.93;;;4.70;99.90;;;;;;5035206;28;20183;-66
2022/03/30 03:38:10;;;;;;;3.37;1.93;;;4.70;99.90;;;;;;5036460;28;20260;-65
2022/03/30 03:40:37;;;;;;;4.93;2.10;;;4.80;99.90;;;;;;5035587;28;20942;-63
2022/03/30 03:43:04;;;;;;;3.87;3.20;;;4.80;99.90;;;;;;5036539;28;20414;-67
2022/03/30 03:45:30;;;;;;;4.43;2.67;;;4.80;99.90;;;;;;5036184;28;20402;-63
2022/03/30 03:47:56;;;;;;;7.37;2.37;;;4.80;99.90;;;;;;5036302;28;20395;-63
2022/03/30 03:50:22;;;;;;;4.00;2.33;;;4.80;99.90;;;;;;5035472;28;20409;-67
2022/03/30 03:52:48;;;;;;;3.03;2.73;;;4.90;99.90;;;;;;5035915;28;20509;-66
2022/03/30 03:55:14;;;;;;;6.87;2.10;;;4.90;99.90;;;;;;5036210;28;20410;-66
2022/03/30 03:57:41;;;;;;;3.70;2.57;;;4.90;99.90;;;;;;5036162;28;20406;-63
2022/03/30 04:00:08;;;;;;;2.70;2.50;;;4.80;99.90;;;;;;5035235;28;20176;-63
2022/03/30 04:02:34;;;;;;;3.20;2.90;;;4.70;99.90;;;;;;5035773;28;20425;-64
2022/03/30 04:05:00;;;;;;;3.77;2.10;;;4.80;99.90;;;;;;5035748;28;20401;-63
2022/03/30 04:07:25;;;;;;;3.03;2.33;;;4.80;99.90;;;;;;5035834;28;20202;-64
2022/03/30 04:09:51;;;;;;;4.33;2.40;;;4.80;99.90;;;;;;5035314;28;20175;-63
2022/03/30 04:12:16;;;;;;;1.93;1.80;;;4.90;99.90;;;;;;5035764;28;20203;-63
2022/03/30 04:14:42;;;;;;;3.37;2.10;;;4.90;99.90;;;;;;5035815;28;20194;-65
2022/03/30 04:17:08;;;;;;;3.50;2.03;;;4.80;99.90;;;;;;5035738;28;20177;-63
2022/03/30 04:19:33;;;;;;;3.53;2.10;;;4.80;99.90;;;;;;5034997;28;20228;-63
2022/03/30 04:21:59;;;;;;;1.97;1.87;;;4.80;99.90;;;;;;5035520;28;20207;-66
2022/03/30 04:24:25;;;;;;;3.60;2.47;;;4.80;99.90;;;;;;5035656;28;20174;-63
2022/03/30 04:26:50;;;;;;;6.77;2.40;;;4.80;99.90;;;;;;5035548;28;20183;-67
2022/03/30 04:29:16;;;;;;;5.07;2.00;;;4.70;99.90;;;;;;5034822;28;20182;-63
2022/03/30 04:31:42;;;;;;;2.90;2.07;;;4.70;99.90;;;;;;5034433;28;20206;-63
2022/03/30 04:34:07;;;;;;;6.50;2.27;;;4.70;99.90;;;;;;5035371;28;20172;-66
2022/03/30 04:36:33;;;;;;;4.70;2.40;;;4.70;99.90;;;;;;5035232;28;20647;-64
2022/03/30 04:38:59;;;;;;;9.23;2.47;;;4.70;99.90;;;;;;5034387;28;20206;-66
2022/03/30 04:41:25;;;;;;;2.40;2.17;;;4.70;99.90;;;;;;5035022;28;20236;-64
2022/03/30 04:43:50;;;;;;;8.87;2.43;;;4.70;99.90;;;;;;5034601;28;20496;-64
2022/03/30 04:46:17;;;;;;;5.47;2.67;;;4.70;99.90;;;;;;5034892;28;20263;-66
2022/03/30 04:48:43;;;;;;;3.30;2.30;;;4.60;99.90;;;;;;5034399;28;20174;-67
2022/03/30 04:51:08;;;;;;;5.40;2.20;;;4.50;99.90;;;;;;5034828;28;20399;-64
2022/03/30 04:53:34;;;;;;;2.63;2.43;;;4.40;99.90;;;;;;5034999;28;20182;-63
2022/03/30 04:56:00;;;;;;;5.57;2.40;;;4.40;99.90;;;;;;5035146;28;20649;-64
2022/03/30 04:58:26;;;;;;;6.20;2.50;;;4.40;99.90;;;;;;5034741;28;20174;-68
2022/03/30 05:00:51;;;;;;;5.37;2.90;;;4.40;99.90;;;;;;5034166;28;20244;-67
2022/03/30 05:03:17;;;;;;;2.70;2.30;;;4.50;99.90;;;;;;5034305;28;20814;-66
2022/03/30 05:05:43;;;;;;;4.90;3.20;;;4.50;99.90;;;;;;5035002;28;20199;-63
2022/03/30 05:08:09;;;;;;;2.37;2.10;;;4.50;99.90;;;;;;5034681;28;20167;-62
2022/03/30 05:10:35;;;;;;;5.00;2.80;;;4.50;99.90;;;;;;5033957;28;20407;-62
2022/03/30 05:13:02;;;;;;;3.53;2.80;;;4.50;99.90;;;;;;5034741;28;20204;-65
2022/03/30 05:15:28;;;;;;;4.80;2.70;;;4.50;99.90;;;;;;5034592;28;20172;-65
2022/03/30 05:17:55;;;;;;;2.20;2.10;;;4.60;99.90;;;;;;5034471;28;20471;-65
2022/03/30 05:20:21;;;;;;;5.50;2.60;;;4.50;99.90;;;;;;5033895;28;20403;-62
2022/03/30 05:22:47;;;;;;;2.63;2.43;;;4.50;99.90;;;;;;5034455;28;20413;-65
2022/03/30 05:25:15;;;;;;;2.90;2.70;;;4.50;99.90;;;;;;5034350;28;20411;-63
2022/03/30 05:27:41;;;;;;;7.90;2.97;;;4.50;99.90;;;;;;5034351;28;20409;-65
2022/03/30 05:30:07;;;;;;;3.07;2.77;;;4.50;99.90;;;;;;5033533;28;20417;-62
2022/03/30 05:32:34;;;;;;;3.63;2.73;;;4.40;99.90;;;;;;5034177;28;20507;-65
2022/03/30 05:35:00;;;;;;;2.80;2.53;;;4.40;99.90;;;;;;5034209;28;20402;-62
2022/03/30 05:37:26;;;;;;;3.47;3.10;;;4.40;99.90;;;;;;5034134;28;20447;-64
2022/03/30 05:39:52;;;;;;;4.57;2.50;;;4.40;99.90;;;;;;5033499;28;20422;-63
2022/03/30 05:42:18;;;;;;;8.13;3.17;;;4.40;99.90;;;;;;5034027;28;21039;-66
2022/03/30 05:44:44;;;;;;;7.60;3.27;;;4.50;99.90;;;;;;5034045;28;20893;-63
2022/03/30 05:47:10;;;;;;;3.03;2.83;;;4.50;99.90;;;;;;5034007;28;20517;-65
2022/03/30 05:49:37;;;;;;;3.43;2.87;;;4.50;99.90;;;;;;5033249;28;20171;-64
2022/03/30 05:52:04;;;;;;;2.77;2.57;;;4.60;99.90;;;;;;5033745;28;20422;-63
2022/03/30 05:54:30;;;;;;;6.20;3.30;;;4.60;99.90;;;;;;5033903;28;20456;-62
2022/03/30 05:57:01;;;;;;;6.80;2.43;;;4.60;99.90;;;;;;5033868;28;20434;-66
2022/03/30 05:59:37;;;;;;;2.60;2.40;;;4.60;99.90;;;;;;5033080;28;20172;-66
2022/03/30 06:02:04;;;;;;;6.97;2.80;;;4.60;99.90;;;;;;5033537;28;20467;-65
2022/03/30 06:04:30;;;;;;;4.10;2.57;;;4.60;99.90;;;;;;5033833;28;20414;-63
2022/03/30 06:06:56;;;;;;;2.90;2.60;;;4.60;99.90;;;;;;5033659;28;20436;-62
2022/03/30 06:09:23;;;;;;;6.43;3.00;;;4.60;99.90;;;;;;5032998;28;20521;-65
2022/03/30 06:11:49;;;;;;;2.80;2.60;;;4.50;99.90;;;;;;5033420;28;20504;-66
2022/03/30 06:14:15;;;;;;;3.70;3.03;;;4.50;99.90;;;;;;5033921;28;20175;-65
2022/03/30 06:16:44;;;;;;;3.30;2.83;;;4.30;99.90;;;;;;5032555;28;20621;-62
2022/03/30 06:19:11;;;;;;;2.30;2.20;;;4.10;99.90;;;;;;5032957;28;20175;-63
2022/03/30 06:21:36;;;;;;;3.67;2.43;;;4.00;99.90;;;;;;5033323;28;20460;-65
2022/03/30 06:24:02;;;;;;;4.70;2.77;;;4.10;99.90;;;;;;5033511;28;20404;-66
2022/03/30 06:26:28;;;;;;;2.97;2.77;;;4.10;99.90;;;;;;5033448;28;20238;-65
2022/03/30 06:28:54;;;;;;;3.10;2.80;;;4.10;99.90;;;;;;5032931;28;20398;-65
2022/03/30 06:31:20;;;;;;;3.40;3.13;;;4.20;99.90;;;;;;5033488;28;20201;-62
2022/03/30 06:33:47;;;;;;;6.23;3.20;;;4.20;99.90;;;;;;5033283;28;20401;-63
2022/03/30 06:36:14;;;;;;;3.60;3.20;;;4.30;99.90;;;;;;5033362;28;20251;-65
2022/03/30 06:38:42;;;;;;;3.17;2.97;;;4.30;99.90;;;;;;5031500;28;20409;-62
2022/03/30 06:41:09;;;;;;;2.77;2.57;;;4.40;99.90;;;;;;5033169;28;20488;-65
2022/03/30 06:43:36;;;;;;;6.03;3.17;;;4.50;99.90;;;;;;5033285;28;20403;-65
2022/03/30 06:46:03;;;;;;;4.27;3.93;;;4.50;99.90;;;;;;5033218;28;20434;-65
2022/03/30 06:48:30;;;;;;;2.60;2.50;;;4.50;99.90;;;;;;5032565;28;20536;-71
2022/03/30 06:50:59;;;;;;;4.60;3.33;;;4.40;99.90;;;;;;5033315;28;20986;-66
2022/03/30 06:53:24;;;;;;;6.93;2.87;;;4.40;99.90;;;;;;5031896;28;20421;-63
2022/03/30 06:55:50;;;;;;;4.23;3.47;;;4.40;99.90;;;;;;5033210;28;20407;-63
2022/03/30 06:58:16;;;;;;;2.83;2.63;;;4.40;99.90;;;;;;5031754;28;20559;-66
2022/03/30 07:00:42;;;;;;;4.83;3.10;;;4.40;99.90;;;;;;5032424;28;20205;-63
2022/03/30 07:03:08;;;;;;;5.50;3.40;;;4.40;99.90;;;;;;5033083;28;20421;-65
2022/03/30 07:05:33;;;;;;;5.70;3.03;;;4.50;99.90;;;;;;5033099;28;20403;-66
2022/03/30 07:10:43;;;;;;;4.83;3.70;;;4.60;99.90;;;;;;5036271;28;20174;-65
2022/03/30 07:13:09;;;;;;;6.33;3.67;;;4.70;99.90;;;;;;5036766;28;20423;-62
2022/03/30 07:15:34;;;;;;;6.30;4.00;;;4.80;99.90;;;;;;5036826;28;20637;-63
2022/03/30 07:18:01;;;;;;;11.83;4.87;;;4.90;99.90;;;;;;5037025;28;20172;-63
2022/03/30 07:20:28;;;;;;;4.63;4.00;;;4.80;99.90;;;;;;5034737;28;20521;-65
2022/03/30 07:22:55;;;;;;;4.23;3.10;;;4.80;99.90;;;;;;5036618;28;20452;-65
2022/03/30 07:25:22;;;;;;;4.03;3.73;;;4.80;99.90;;;;;;5036744;28;20450;-65
2022/03/30 07:27:51;;;;;;;7.80;3.30;;;4.80;99.90;;;;;;5036569;28;20400;-63
2022/03/30 07:30:19;;;;;;;3.87;3.57;;;4.90;99.90;;;;;;5036042;28;20425;-66
2022/03/30 07:32:47;;;;;;;4.90;3.10;;;4.90;99.90;;;;;;5036532;28;20496;-63
2022/03/30 07:35:15;;;;;;;9.43;3.97;;;5.00;99.90;;;;;;5036548;28;20409;-63
2022/03/30 07:37:41;;;;;;;3.70;3.30;;;4.90;99.90;;;;;;5036533;28;20883;-63
2022/03/30 07:40:09;;;;;;;3.07;2.90;;;4.90;99.90;;;;;;5035770;28;20476;-63
2022/03/30 07:42:35;;;;;;;6.60;3.80;;;4.90;99.90;;;;;;5036187;28;20428;-65
2022/03/30 07:45:02;;;;;;;7.20;3.60;;;5.10;99.90;;;;;;5036454;28;20444;-66
2022/03/30 07:47:29;;;;;;;11.77;4.23;;;5.10;99.90;;;;;;5036261;28;20402;-62
2022/03/30 07:49:55;;;;;;;3.47;3.27;;;5.00;99.90;;;;;;5035584;28;20432;-65
2022/03/30 07:52:21;;;;;;;3.97;3.57;;;5.00;99.90;;;;;;5036152;28;20417;-66
2022/03/30 07:54:48;;;;;;;5.13;3.03;;;5.00;99.90;;;;;;5035973;28;20417;-63
2022/03/30 07:57:14;;;;;;;6.00;3.60;;;5.00;99.90;;;;;;5036225;28;20402;-63
2022/03/30 07:59:39;;;;;;;3.67;3.37;;;5.00;99.90;;;;;;5035494;28;20399;-63
2022/03/30 08:02:05;;;;;;;4.13;3.83;;;5.00;99.90;;;;;;5035829;28;20812;-63
2022/03/30 08:04:31;;;;;;;4.00;3.40;;;5.10;99.90;;;;;;5035825;28;20238;-65
2022/03/30 08:06:57;;;;;;;4.70;3.40;;;5.30;99.90;;;;;;5035715;28;20433;-66
2022/03/30 08:09:23;;;;;;;6.70;2.80;;;5.60;99.90;;;;;;5035211;28;20259;-66
2022/03/30 08:11:48;;;;;;;11.10;3.37;;;5.80;99.90;;;;;;5035858;28;20200;-66
2022/03/30 08:14:14;;;;;;;3.87;3.20;;;6.00;99.90;;;;;;5035840;28;20426;-62
2022/03/30 08:16:40;;;;;;;3.40;2.97;;;6.30;99.90;;;;;;5035612;28;20207;-63
2022/03/30 08:19:07;;;;;;;2.97;2.77;;;6.60;99.90;;;;;;5033829;28;20214;-66
2022/03/30 08:24:19;;;;;;;3.80;3.07;;;7.10;99.90;;;;;;5035675;28;20452;-65
2022/03/30 08:26:45;;;;;;;4.40;3.07;;;7.40;99.90;;;;;;5035532;28;20422;-65
2022/03/30 08:29:11;;;;;;;3.30;3.00;;;7.40;99.90;;;;;;5034898;28;20896;-66
2022/03/30 08:31:37;;;;;;;4.30;3.90;;;7.20;99.90;;;;;;5035409;28;20270;-66
2022/03/30 08:34:03;;;;;;;3.57;3.20;;;7.00;99.90;;;;;;5035504;28;20960;-66
2022/03/30 08:36:29;;;;;;;6.27;3.60;;;6.70;99.90;;;;;;5035284;28;20399;-66
2022/03/30 08:38:59;;;;;;;8.90;3.90;;;6.50;99.90;;;;;;5034611;28;20178;-63
2022/03/30 08:41:25;;;;;;;3.87;3.40;;;6.50;99.90;;;;;;5034961;28;20497;-63
2022/03/30 08:43:51;;;;;;;4.53;2.90;;;6.50;99.90;;;;;;5035272;28;20919;-63
2022/03/30 08:46:17;;;;;;;4.03;2.33;;;6.50;99.90;;;;;;5035178;28;20172;-65
2022/03/30 08:48:43;;;;;;;3.37;3.07;;;6.60;99.90;;;;;;5034547;28;20410;-63
2022/03/30 08:51:10;;;;;;;3.10;2.90;;;6.50;99.90;;;;;;5034940;28;20273;-63
2022/03/30 08:53:39;;;;;;;3.13;2.83;;;6.50;99.90;;;;;;5035157;28;20403;-63
2022/03/30 08:56:05;;;;;;;5.63;3.20;;;6.40;99.90;;;;;;5034998;28;20771;-62
2022/03/30 08:58:30;;;;;;;2.93;2.60;;;6.40;99.90;;;;;;5034245;28;20421;-67
2022/03/30 09:01:14;;;;;;;2.80;2.60;;;6.30;99.90;;;;;;5034835;28;20199;-63
2022/03/30 09:04:00;;;;;;;3.27;2.97;;;6.20;99.90;;;;;;5034849;28;20571;-66
2022/03/30 09:06:50;;;;;;;4.80;2.70;;;6.30;99.90;;;;;;5034794;28;20429;-62
2022/03/30 09:09:18;;;;;;;7.07;3.00;;;6.40;99.90;;;;;;5032329;28;20833;-66
2022/03/30 09:11:52;;;;;;;3.70;3.10;;;6.40;99.90;;;;;;5034749;28;20561;-66
2022/03/30 09:14:20;;;;;;;6.23;2.70;;;6.50;99.90;;;;;;5034715;28;20406;-66
2022/03/30 09:16:51;;;;;;;4.50;3.07;;;6.70;99.90;;;;;;5034597;28;20459;-63
2022/03/30 09:19:18;;;;;;;2.60;2.23;;;6.80;99.90;;;;;;5033727;28;20413;-66
2022/03/30 09:21:46;;;;;;;2.67;2.47;;;7.20;99.90;;;;;;5034631;28;20958;-66
2022/03/30 09:24:13;;;;;;;3.10;2.90;;;7.40;99.90;;;;;;5034520;28;20397;-66
2022/03/30 09:26:39;;;;;;;5.47;2.60;;;7.50;99.90;;;;;;5034560;28;20394;-66
2022/03/30 09:29:05;;;;;;;3.30;2.60;;;7.40;99.90;;;;;;5033758;28;20402;-64
2022/03/30 09:31:31;;;;;;;2.90;2.70;;;7.20;99.90;;;;;;5033885;28;20656;-63
2022/03/30 09:34:02;;;;;;;3.27;2.70;;;7.10;99.90;;;;;;5034309;28;20453;-65
2022/03/30 09:36:30;;;;;;;10.53;3.23;;;7.10;99.90;;;;;;5034316;28;20411;-66
2022/03/30 09:38:55;;;;;;;2.60;2.40;;;7.00;99.90;;;;;;5033339;28;20410;-66
2022/03/30 09:41:21;;;;;;;2.70;2.50;;;6.90;99.90;;;;;;5034026;28;20466;-64
2022/03/30 09:43:47;;;;;;;3.20;2.87;;;6.80;99.90;;;;;;5034044;28;20175;-66
2022/03/30 09:46:15;;;;;;;2.80;2.60;;;6.70;99.90;;;;;;5034219;28;20175;-63
2022/03/30 09:48:53;;;;;;;3.83;3.23;;;6.70;99.90;;;;;;5033356;28;20660;-67
2022/03/30 09:51:20;;;;;;;6.10;2.67;;;6.90;99.90;;;;;;5033876;28;20417;-68
2022/03/30 09:53:47;;;;;;;3.50;2.60;;;7.10;99.90;;;;;;5033773;28;20426;-63
2022/03/30 09:56:15;;;;;;;6.97;2.70;;;7.00;99.90;;;;;;5032835;28;20453;-63
2022/03/30 09:58:42;;;;;;;2.87;2.60;;;6.90;99.90;;;;;;5033251;28;20414;-63
2022/03/30 10:01:10;;;;;;;4.57;2.83;;;6.90;99.90;;;;;;5033578;28;20456;-67
2022/03/30 10:03:54;;;;;;;5.53;3.23;;;6.80;99.90;;;;;;5033658;28;20409;-64
2022/03/30 10:06:34;;;;;;;3.30;3.07;;;6.80;99.90;;;;;;5033599;28;20765;-63
2022/03/30 10:08:59;;;;;;;3.33;2.67;;;7.10;99.90;;;;;;5033031;28;20399;-66
2022/03/30 10:11:29;;;;;;;2.33;2.13;;;7.30;99.90;;;;;;5033626;28;20521;-64
2022/03/30 10:13:59;;;;;;;2.23;2.03;;;7.40;99.90;;;;;;5033512;28;20186;-63
2022/03/30 10:16:27;;;;;;;3.10;2.80;;;7.30;99.90;;;;;;5033831;28;20406;-66
2022/03/30 10:18:53;;;;;;;3.20;2.90;;;7.10;99.90;;;;;;5032868;28;20406;-66
2022/03/30 10:21:22;;;;;;;3.33;2.77;;;6.80;99.90;;;;;;5033468;28;20950;-62
2022/03/30 10:24:02;;;;;;;2.63;2.53;;;6.70;99.90;;;;;;5033298;28;20489;-66
2022/03/30 10:26:41;;;;;;;7.37;2.90;;;6.80;99.90;;;;;;5033413;28;20444;-63
2022/03/30 10:29:11;;;;;;;5.50;2.47;;;6.80;99.90;;;;;;5032879;28;20430;-63
2022/03/30 10:31:37;;;;;;;4.90;3.30;;;7.20;99.90;;;;;;5033336;28;20426;-63
2022/03/30 10:34:25;;;;;;;5.97;3.03;;;7.70;99.90;;;;;;5033388;28;20961;-66
2022/03/30 10:37:08;;;;;;;6.50;2.47;;;8.50;99.90;;;;;;5033609;28;20418;-68
2022/03/30 10:39:34;;;;;;;3.07;2.87;;;9.60;99.90;;;;;;5032676;28;20493;-69
2022/03/30 10:42:11;;;;;;;2.87;2.60;;;10.40;99.90;;;;;;5033075;28;20550;-69
2022/03/30 10:44:46;;;;;;;4.27;3.00;;;11.00;99.90;;;;;;5037584;28;20425;-65
2022/03/30 10:47:23;;;;;;;2.40;2.07;;;11.20;99.90;;;;;;5037494;28;20401;-69
2022/03/30 10:49:50;;;;;;;2.77;2.57;;;11.80;99.90;;;;;;5036669;28;20401;-69
2022/03/30 10:52:34;;;;;;;6.07;2.60;;;11.50;99.90;;;;;;5037244;28;20907;-68
2022/03/30 10:55:12;;;;;;;2.40;2.20;;;11.30;99.90;;;;;;5037336;28;20406;-65
2022/03/30 10:57:51;;;;;;;8.43;2.80;;;11.30;99.90;;;;;;5037236;28;20406;-65
2022/03/30 11:00:18;;;;;;;4.60;2.77;;;11.90;99.90;;;;;;5036475;28;20429;-68
2022/03/30 11:02:44;;;;;;;3.33;2.97;;;11.80;99.90;;;;;;5037141;28;20435;-68
2022/03/30 11:05:12;;;;;;;2.43;2.10;;;11.70;99.90;;;;;;5037186;28;20775;-68
2022/03/30 11:07:38;;;;;;;6.33;3.57;;;11.50;99.90;;;;;;5036848;28;20451;-69
2022/03/30 11:10:17;;;;;;;3.13;2.70;;;11.30;99.90;;;;;;5036251;28;20779;-70
2022/03/30 11:13:02;;;;;;;4.93;3.10;;;11.90;99.90;;;;;;5036890;28;20418;-66
2022/03/30 11:15:30;;;;;;;2.90;2.30;;;12.70;99.90;;;;;;5036858;28;20402;-65
2022/03/30 11:18:18;;;;;;;3.70;2.70;;;13.00;99.90;;;;;;5036787;28;20410;-70
2022/03/30 11:21:12;;;;;;;3.83;2.70;;;13.10;99.90;;;;;;5036101;28;20480;-65
2022/03/30 11:23:59;;;;;;;3.17;1.93;;;12.60;99.90;;;;;;5036586;28;20400;-65
2022/03/30 11:26:45;;;;;;;3.13;2.83;;;12.70;99.90;;;;;;5036730;28;20365;-66
2022/03/30 11:29:42;;;;;;;3.43;2.83;;;12.30;99.90;;;;;;5034491;28;20815;-69
2022/03/30 11:32:22;;;;;;;5.67;2.53;;;11.40;99.90;;;;;;5036428;28;20921;-68
2022/03/30 11:34:54;;;;;;;4.77;3.10;;;10.90;99.90;;;;;;5036617;28;20426;-68
2022/03/30 11:37:25;;;;;;;2.90;2.70;;;10.10;99.90;;;;;;5036608;28;20413;-67
2022/03/30 11:39:52;;;;;;;3.27;3.07;;;9.50;99.90;;;;;;5035773;28;20407;-69
2022/03/30 11:42:19;;;;;;;2.30;2.10;;;9.60;99.90;;;;;;5036213;28;20792;-65
2022/03/30 11:47:34;;;;;;;4.27;3.43;;;9.70;99.90;;;;;;5036725;28;20383;-69
2022/03/30 11:50:00;;;;;;;5.70;2.73;;;9.70;99.90;;;;;;5035645;28;20398;-69
2022/03/30 11:52:26;;;;;;;3.30;3.10;;;9.50;99.90;;;;;;5036095;28;20411;-63
2022/03/30 11:54:53;;;;;;;3.67;2.90;;;9.00;99.90;;;;;;5035899;28;20767;-62
2022/03/30 11:57:21;;;;;;;4.23;2.60;;;8.40;99.90;;;;;;5036136;28;20649;-67
2022/03/30 12:00:13;;;;;;;5.93;2.57;;;7.90;99.90;;;;;;5035431;28;20484;-66
2022/03/30 12:02:42;;;;;;;8.57;3.27;;;7.60;99.90;;;;;;5036623;28;20474;-66
2022/03/30 12:05:08;;;;;;;2.77;2.57;;;7.30;99.90;;;;;;5036109;28;20505;-66
2022/03/30 12:07:35;;;;;;;2.90;2.67;;;7.00;99.90;;;;;;5035814;28;20521;-62
2022/03/30 12:10:03;;;;;;;6.10;3.63;;;6.80;99.90;;;;;;5035233;28;20182;-66
2022/03/30 12:12:40;;;;;;;3.13;2.90;;;6.80;99.90;;;;;;5035628;28;20426;-67
2022/03/30 12:15:12;;;;;;;3.73;2.93;;;6.90;99.90;;;;;;5036026;28;20405;-66
2022/03/30 12:17:39;;;;;;;5.90;3.60;;;6.90;99.90;;;;;;5035833;28;20407;-63
2022/03/30 12:20:07;;;;;;;3.80;3.60;;;6.90;99.90;;;;;;5035013;28;20729;-66
2022/03/30 12:22:34;;;;;;;4.63;2.93;;;6.70;99.90;;;;;;5035450;28;20454;-66
2022/03/30 12:25:01;;;;;;;7.53;4.07;;;6.80;99.90;;;;;;5035487;28;20402;-66
2022/03/30 12:27:26;;;;;;;3.60;2.80;;;7.00;99.90;;;;;;5035706;28;20437;-62
2022/03/30 12:29:56;;;;;;;4.17;3.80;;;7.10;99.90;;;;;;5035055;28;20426;-66
2022/03/30 12:32:26;;;;;;;3.73;3.50;;;7.30;99.90;;;;;;5035563;28;20421;-66
2022/03/30 12:35:14;;;;;;;5.30;3.73;;;7.50;99.90;;;;;;5035292;28;20398;-67
2022/03/30 12:37:43;;;;;;;3.13;2.90;;;7.50;99.90;;;;;;5035552;28;20432;-66
2022/03/30 12:40:14;;;;;;;4.93;4.53;;;7.40;99.90;;;;;;5034691;28;20394;-66
2022/03/30 12:42:41;;;;;;;3.40;3.10;;;7.30;99.90;;;;;;5035115;28;20539;-65
2022/03/30 12:45:14;;;;;;;3.90;3.50;;;7.00;99.90;;;;;;5035266;28;20386;-63
2022/03/30 12:48:02;;;;;;;4.13;3.73;;;6.80;99.90;;;;;;5035234;28;20445;-66
2022/03/30 12:50:33;;;;;;;7.57;3.43;;;6.40;99.90;;;;;;5034497;28;20403;-63
2022/03/30 12:53:15;;;;;;;7.07;3.77;;;6.50;99.90;;;;;;5034976;28;20910;-63
2022/03/30 12:55:46;;;;;;;5.20;3.10;;;6.60;99.90;;;;;;5035156;28;20434;-62
2022/03/30 12:58:14;;;;;;;4.47;4.07;;;6.60;99.90;;;;;;5034982;28;20490;-66
2022/03/30 13:00:41;;;;;;;4.27;3.97;;;6.50;99.90;;;;;;5032978;28;20407;-66
2022/03/30 13:03:16;;;;;;;3.60;3.03;;;6.50;99.90;;;;;;5034701;28;20500;-67
2022/03/30 13:05:44;;;;;;;3.90;3.60;;;6.40;99.90;;;;;;5032777;28;20487;-62
2022/03/30 13:08:15;;;;;;;4.90;3.50;;;6.20;99.90;;;;;;5034794;28;20408;-63
2022/03/30 13:10:57;;;;;;;4.60;3.93;;;6.10;99.90;;;;;;5034044;28;20398;-65